Time;durP1;ratioP1;P1;durP2;ratioP2;P2;SDS_P1;SDS_P2;PMS_P1;PMS_P2;Temp;Humidity;BMP_temperature;BMP_pressure;BME280_temperature;BME280_humidity;BME280_pressure;Samples;Min_cycle;Max_cycle;Signal;HPM_P1;HPM_P2
2021/03/19 00:01:39;;;;;;;7.15;3.33;;;;;;;;;;5015430;28;20091;-64
2021/03/19 00:04:25;;;;;;;10.43;3.15;;;;;;;;;;5032150;28;20046;-64
2021/03/19 00:07:10;;;;;;;6.47;3.00;;;;;;;;;;5010954;28;20042;-64
2021/03/19 00:09:55;;;;;;;8.52;3.80;;;;;;;;;;5021808;28;20128;-64
2021/03/19 00:12:41;;;;;;;13.95;5.35;;;;;;;;;;5017612;28;20052;-64
2021/03/19 00:15:26;;;;;;;9.15;4.50;;;;;;;;;;5009382;28;20050;-64
2021/03/19 00:18:12;;;;;;;9.30;3.42;;;;;;;;;;5011088;28;20462;-64
2021/03/19 00:20:57;;;;;;;8.00;3.20;;;;;;;;;;5011584;28;20560;-63
2021/03/19 00:23:42;;;;;;;8.70;2.75;;;;;;;;;;5012475;28;20064;-63
2021/03/19 00:26:28;;;;;;;6.68;3.63;;;;;;;;;;5012317;28;20085;-63
2021/03/19 00:29:13;;;;;;;11.48;3.67;;;;;;;;;;5001562;28;20404;-63
2021/03/19 00:31:59;;;;;;;9.93;3.15;;;;;;;;;;4992901;28;20129;-63
2021/03/19 00:34:44;;;;;;;6.75;3.13;;;;;;;;;;4992550;28;20133;-64
2021/03/19 00:37:30;;;;;;;9.60;3.70;;;;;;;;;;4991684;28;20054;-63
2021/03/19 00:40:15;;;;;;;12.00;4.20;;;;;;;;;;5008849;28;20057;-63
2021/03/19 00:43:00;;;;;;;12.07;4.15;;;;;;;;;;5012389;28;20052;-63
2021/03/19 00:45:45;;;;;;;8.80;4.30;;;;;;;;;;5012027;28;20053;-63
2021/03/19 00:48:31;;;;;;;11.27;3.97;;;;;;;;;;5012549;28;20053;-62
2021/03/19 00:51:16;;;;;;;11.35;4.05;;;;;;;;;;4992533;28;20047;-63
2021/03/19 00:54:02;;;;;;;12.82;4.00;;;;;;;;;;4992461;28;20046;-63
2021/03/19 00:56:48;;;;;;;8.40;3.72;;;;;;;;;;4992819;28;20051;-63
2021/03/19 00:59:33;;;;;;;10.70;3.70;;;;;;;;;;4997105;28;20050;-63
2021/03/19 01:02:18;;;;;;;9.90;4.30;;;;;;;;;;5011662;28;20045;-63
2021/03/19 01:05:05;;;;;;;12.13;3.65;;;;;;;;;;5012091;28;20100;-63
2021/03/19 01:07:50;;;;;;;13.13;4.07;;;;;;;;;;5012271;28;20127;-63
2021/03/19 01:10:36;;;;;;;8.15;2.92;;;;;;;;;;5001550;28;20071;-63
2021/03/19 01:13:22;;;;;;;6.13;3.17;;;;;;;;;;4992570;28;20051;-63
2021/03/19 01:16:07;;;;;;;7.88;3.55;;;;;;;;;;4992165;28;20042;-64
2021/03/19 01:18:52;;;;;;;8.27;3.83;;;;;;;;;;4992417;28;20152;-63
2021/03/19 01:21:38;;;;;;;10.63;3.58;;;;;;;;;;5007171;28;20061;-63
2021/03/19 01:24:23;;;;;;;9.05;3.45;;;;;;;;;;5011806;28;20054;-63
2021/03/19 01:27:08;;;;;;;7.20;3.55;;;;;;;;;;5011943;28;20460;-63
2021/03/19 01:29:54;;;;;;;10.00;3.67;;;;;;;;;;5011977;28;20046;-63
2021/03/19 01:32:39;;;;;;;18.83;5.68;;;;;;;;;;4992377;28;20046;-63
2021/03/19 01:35:24;;;;;;;9.68;4.05;;;;;;;;;;4992055;28;20520;-63
2021/03/19 01:38:10;;;;;;;10.35;3.78;;;;;;;;;;4995867;28;20057;-63
2021/03/19 01:40:55;;;;;;;10.00;3.47;;;;;;;;;;5000297;28;20046;-63
2021/03/19 01:43:40;;;;;;;10.98;4.45;;;;;;;;;;5015403;28;20072;-63
2021/03/19 01:46:45;;;;;;;12.52;4.45;;;;;;;;;;5015132;28;20077;-63
2021/03/19 01:49:49;;;;;;;13.32;4.43;;;;;;;;;;5015512;28;20128;-62
2021/03/19 01:52:53;;;;;;;13.75;3.92;;;;;;;;;;5014800;28;20053;-63
2021/03/19 01:55:57;;;;;;;10.38;4.10;;;;;;;;;;5014818;28;20096;-63
2021/03/19 01:59:01;;;;;;;12.73;4.30;;;;;;;;;;5015200;28;20050;-63
2021/03/19 02:02:05;;;;;;;12.52;5.07;;;;;;;;;;5009315;28;20416;-63
2021/03/19 02:05:10;;;;;;;9.15;4.15;;;;;;;;;;5013937;28;20058;-63
2021/03/19 02:08:14;;;;;;;8.52;4.28;;;;;;;;;;5015143;28;20049;-63
2021/03/19 02:11:18;;;;;;;9.45;5.60;;;;;;;;;;5014852;28;20046;-63
2021/03/19 02:14:22;;;;;;;14.00;5.18;;;;;;;;;;4995371;28;20046;-63
2021/03/19 02:17:26;;;;;;;15.48;6.18;;;;;;;;;;4995262;28;20046;-63
2021/03/19 02:20:30;;;;;;;17.90;6.63;;;;;;;;;;4995183;28;20043;-63
2021/03/19 02:23:34;;;;;;;9.80;4.57;;;;;;;;;;5006118;28;20046;-63
2021/03/19 02:26:38;;;;;;;14.75;5.30;;;;;;;;;;5013100;28;20049;-63
2021/03/19 02:29:42;;;;;;;12.73;4.70;;;;;;;;;;5014662;28;20129;-64
2021/03/19 02:32:27;;;;;;;12.50;5.57;;;;;;;;;;5012457;28;20042;-64
2021/03/19 02:35:14;;;;;;;11.88;5.00;;;;;;;;;;4994773;28;20560;-64
2021/03/19 02:38:00;;;;;;;11.70;5.30;;;;;;;;;;4994944;28;20133;-64
2021/03/19 02:40:45;;;;;;;15.23;5.30;;;;;;;;;;4995057;28;20055;-64
2021/03/19 02:43:30;;;;;;;11.35;5.05;;;;;;;;;;5002194;28;20080;-64
2021/03/19 02:46:16;;;;;;;13.38;5.50;;;;;;;;;;5013044;28;20436;-64
2021/03/19 02:49:01;;;;;;;10.07;4.68;;;;;;;;;;5014055;28;20455;-64
2021/03/19 02:51:46;;;;;;;15.57;5.15;;;;;;;;;;5014259;28;20050;-64
2021/03/19 02:54:32;;;;;;;15.63;6.20;;;;;;;;;;5000547;28;20046;-64
2021/03/19 02:57:17;;;;;;;14.40;5.43;;;;;;;;;;4994392;28;20057;-64
2021/03/19 03:00:04;;;;;;;19.10;6.45;;;;;;;;;;4994617;28;20058;-64
2021/03/19 03:02:50;;;;;;;16.45;7.20;;;;;;;;;;4994453;28;20493;-64
2021/03/19 03:05:35;;;;;;;11.02;6.00;;;;;;;;;;5012516;28;20058;-64
2021/03/19 03:08:22;;;;;;;13.13;5.43;;;;;;;;;;5013924;28;20484;-64
2021/03/19 03:11:07;;;;;;;21.00;7.38;;;;;;;;;;5013798;28;20046;-64
2021/03/19 03:13:52;;;;;;;19.70;7.47;;;;;;;;;;5011399;28;20455;-64
2021/03/19 03:16:38;;;;;;;17.48;7.35;;;;;;;;;;4994180;28;20046;-64
2021/03/19 03:19:24;;;;;;;19.90;7.63;;;;;;;;;;4994251;28;20499;-64
2021/03/19 03:22:10;;;;;;;12.90;6.63;;;;;;;;;;4993023;28;20137;-64
2021/03/19 03:24:56;;;;;;;17.65;7.15;;;;;;;;;;4996715;28;20070;-63
2021/03/19 03:27:42;;;;;;;18.58;8.77;;;;;;;;;;4992978;28;20089;-64
2021/03/19 03:30:27;;;;;;;18.55;8.93;;;;;;;;;;4993422;28;20129;-63
2021/03/19 03:33:13;;;;;;;10.25;6.53;;;;;;;;;;4993836;28;20133;-63
2021/03/19 03:35:59;;;;;;;19.70;6.75;;;;;;;;;;5006874;28;20129;-63
2021/03/19 03:38:44;;;;;;;12.68;6.38;;;;;;;;;;5013404;28;20132;-63
2021/03/19 03:41:30;;;;;;;14.75;6.78;;;;;;;;;;5013507;28;20129;-63
2021/03/19 03:44:17;;;;;;;8.82;5.97;;;;;;;;;;5013031;28;20132;-63
2021/03/19 03:47:03;;;;;;;18.92;7.75;;;;;;;;;;5011792;28;20132;-63
2021/03/19 03:49:48;;;;;;;16.25;7.18;;;;;;;;;;5013365;28;20133;-63
2021/03/19 03:52:34;;;;;;;16.60;7.95;;;;;;;;;;5013056;28;20125;-63
2021/03/19 03:55:20;;;;;;;14.70;7.53;;;;;;;;;;5009924;28;20136;-63
2021/03/19 03:58:06;;;;;;;21.77;8.85;;;;;;;;;;5006264;28;20133;-63
2021/03/19 04:00:52;;;;;;;22.35;11.88;;;;;;;;;;4993000;28;20137;-63
2021/03/19 04:03:38;;;;;;;16.67;8.40;;;;;;;;;;4993233;28;20133;-63
2021/03/19 04:06:23;;;;;;;22.80;9.55;;;;;;;;;;5001320;28;20566;-63
2021/03/19 04:09:09;;;;;;;22.77;10.57;;;;;;;;;;5011864;28;20132;-63
2021/03/19 04:11:55;;;;;;;16.23;10.27;;;;;;;;;;5012723;28;20140;-63
2021/03/19 04:14:40;;;;;;;20.02;9.90;;;;;;;;;;5012457;28;20132;-63
2021/03/19 04:17:30;;;;;;;23.63;9.07;;;;;;;;;;4998710;28;20129;-63
2021/03/19 04:20:16;;;;;;;28.48;11.48;;;;;;;;;;5005826;28;20168;-63
2021/03/19 04:23:02;;;;;;;19.63;10.38;;;;;;;;;;4993313;28;20560;-63
2021/03/19 04:25:48;;;;;;;26.90;11.68;;;;;;;;;;4992831;28;20473;-63
2021/03/19 04:28:35;;;;;;;27.42;12.40;;;;;;;;;;4992990;28;20129;-63
2021/03/19 04:31:20;;;;;;;33.42;12.80;;;;;;;;;;4993104;28;20133;-63
2021/03/19 04:34:06;;;;;;;29.55;11.38;;;;;;;;;;4992793;28;20136;-63
2021/03/19 04:36:52;;;;;;;28.85;10.57;;;;;;;;;;4993169;28;20129;-64
2021/03/19 04:39:38;;;;;;;35.67;12.95;;;;;;;;;;5005416;28;20129;-63
2021/03/19 04:42:24;;;;;;;30.05;13.10;;;;;;;;;;4992772;28;20137;-63
2021/03/19 04:45:10;;;;;;;28.92;13.90;;;;;;;;;;4992530;28;20511;-63
2021/03/19 04:47:56;;;;;;;35.83;14.05;;;;;;;;;;5002162;28;20552;-63
2021/03/19 04:50:42;;;;;;;30.17;12.68;;;;;;;;;;5012396;28;20150;-63
2021/03/19 04:53:27;;;;;;;34.25;13.95;;;;;;;;;;5012246;28;20129;-63
2021/03/19 04:56:13;;;;;;;38.67;15.25;;;;;;;;;;5012234;28;20129;-63
2021/03/19 04:58:58;;;;;;;34.67;13.27;;;;;;;;;;4997139;28;20540;-63
2021/03/19 05:01:57;;;;;;;46.40;15.00;;;;;;;;;;5031999;28;20510;-64
2021/03/19 05:04:43;;;;;;;39.38;15.60;;;;;;;;;;5031735;28;20132;-63
2021/03/19 05:07:29;;;;;;;33.92;14.63;;;;;;;;;;5030824;28;20563;-63
2021/03/19 05:10:14;;;;;;;46.83;16.52;;;;;;;;;;5012119;28;20133;-63
2021/03/19 05:13:00;;;;;;;36.92;13.65;;;;;;;;;;5016113;28;20132;-64
2021/03/19 05:15:46;;;;;;;53.35;18.23;;;;;;;;;;5015955;28;20479;-63
2021/03/19 05:18:32;;;;;;;44.55;18.70;;;;;;;;;;5010109;28;20571;-62
2021/03/19 05:21:17;;;;;;;51.08;18.60;;;;;;;;;;4996626;28;20133;-63
2021/03/19 05:24:03;;;;;;;39.17;16.73;;;;;;;;;;4996281;28;20129;-63
2021/03/19 05:26:49;;;;;;;43.83;17.98;;;;;;;;;;4998405;28;20129;-63
2021/03/19 05:29:34;;;;;;;40.40;17.55;;;;;;;;;;5015501;28;20137;-63
2021/03/19 05:32:20;;;;;;;42.30;16.58;;;;;;;;;;5015863;28;20132;-64
2021/03/19 05:35:06;;;;;;;44.88;18.52;;;;;;;;;;5015494;28;20572;-65
2021/03/19 05:37:52;;;;;;;45.72;19.65;;;;;;;;;;5015585;28;20125;-65
2021/03/19 05:40:38;;;;;;;42.00;18.00;;;;;;;;;;5014706;28;20124;-64
2021/03/19 05:43:27;;;;;;;49.67;19.25;;;;;;;;;;5015484;28;20140;-65
2021/03/19 05:46:14;;;;;;;49.15;18.70;;;;;;;;;;5003956;28;20475;-64
2021/03/19 05:49:09;;;;;;;49.60;20.23;;;;;;;;;;4995900;28;20133;-64
2021/03/19 05:52:02;;;;;;;47.67;21.55;;;;;;;;;;5012453;28;20129;-64
2021/03/19 05:54:48;;;;;;;;;;;;;;;;;;5085822;22;20127;-62
2021/03/19 05:57:33;;;;;;;41.30;18.50;;;;;;;;;;5071672;28;20007;-63
2021/03/19 06:00:20;;;;;;;44.10;19.35;;;;;;;;;;5072709;28;20538;-63
2021/03/19 06:03:06;;;;;;;48.78;21.50;;;;;;;;;;5054889;28;20139;-63
2021/03/19 06:06:01;;;;;;;53.25;20.55;;;;;;;;;;5054581;28;20128;-63
2021/03/19 06:08:47;;;;;;;37.88;17.20;;;;;;;;;;5034681;28;20555;-62
2021/03/19 06:11:33;;;;;;;50.75;20.35;;;;;;;;;;5035001;28;20128;-63
2021/03/19 06:14:18;;;;;;;35.58;17.33;;;;;;;;;;5034568;28;20474;-62
2021/03/19 06:17:20;;;;;;;51.60;22.90;;;;;;;;;;5048827;28;20127;-62
2021/03/19 06:20:06;;;;;;;37.85;16.23;;;;;;;;;;5073637;28;20140;-63
2021/03/19 06:22:55;;;;;;;36.53;15.15;;;;;;;;;;5074028;28;20566;-63
2021/03/19 06:25:44;;;;;;;40.80;17.20;;;;;;;;;;5074348;28;20134;-63
2021/03/19 06:29:07;;;;;;;45.42;20.05;;;;;;;;;;5054806;28;20087;-63
2021/03/19 06:32:15;;;;;;;43.53;20.00;;;;;;;;;;5044692;28;20045;-63
2021/03/19 06:35:03;;;;;;;46.05;22.10;;;;;;;;;;5060594;28;20403;-63
2021/03/19 06:38:28;;;;;;;47.45;21.70;;;;;;;;;;5062193;28;20052;-63
2021/03/19 06:41:34;;;;;;;49.00;22.15;;;;;;;;;;5051816;28;20575;-63
2021/03/19 06:44:40;;;;;;;45.45;20.73;;;;;;;;;;5067914;28;20048;-62
2021/03/19 06:47:55;;;;;;;33.40;16.30;;;;;;;;;;5073297;28;20048;-63
2021/03/19 06:51:01;;;;;;;34.28;14.43;;;;;;;;;;5066542;28;20049;-63
2021/03/19 06:54:07;;;;;;;34.58;15.82;;;;;;;;;;5032806;28;20144;-63
2021/03/19 06:57:13;;;;;;;31.42;13.60;;;;;;;;;;5069754;28;20052;-64
2021/03/19 07:00:41;;;;;;;22.90;11.48;;;;;;;;;;5061692;28;20056;-64
2021/03/19 07:03:47;;;;;;;21.52;10.05;;;;;;;;;;5072829;28;20056;-62
2021/03/19 07:07:04;;;;;;;22.02;9.25;;;;;;;;;;5050094;28;20045;-63
2021/03/19 07:10:26;;;;;;;21.48;9.38;;;;;;;;;;5041561;28;20462;-63
2021/03/19 07:13:52;;;;;;;12.77;6.50;;;;;;;;;;5041278;28;20048;-62
2021/03/19 07:17:03;;;;;;;14.63;7.45;;;;;;;;;;5061406;28;20044;-62
2021/03/19 07:19:53;;;;;;;14.60;6.60;;;;;;;;;;5072362;28;20048;-62
2021/03/19 07:22:44;;;;;;;10.50;6.60;;;;;;;;;;5073273;28;20048;-62
2021/03/19 07:25:49;;;;;;;11.98;6.18;;;;;;;;;;5072230;28;20392;-63
2021/03/19 07:29:14;;;;;;;12.27;5.50;;;;;;;;;;5020961;28;20578;-63
2021/03/19 07:32:04;;;;;;;10.10;4.57;;;;;;;;;;5033129;28;20050;-63
2021/03/19 07:34:49;;;;;;;10.65;5.38;;;;;;;;;;5044899;28;20199;-62
2021/03/19 07:37:43;;;;;;;9.70;4.93;;;;;;;;;;5049685;28;20414;-63
2021/03/19 07:41:06;;;;;;;8.90;4.88;;;;;;;;;;5072157;28;20048;-63
2021/03/19 07:44:15;;;;;;;8.70;4.53;;;;;;;;;;5071936;28;20135;-62
2021/03/19 07:47:32;;;;;;;8.38;4.10;;;;;;;;;;5068440;28;20044;-62
2021/03/19 07:50:37;;;;;;;9.35;3.22;;;;;;;;;;5051958;28;20053;-62
2021/03/19 07:53:42;;;;;;;9.30;4.00;;;;;;;;;;5051719;28;20081;-62
2021/03/19 07:57:02;;;;;;;8.10;4.72;;;;;;;;;;5051448;28;20052;-62
2021/03/19 08:00:20;;;;;;;8.68;3.85;;;;;;;;;;5038289;28;20053;-62
2021/03/19 08:03:31;;;;;;;6.93;2.67;;;;;;;;;;5040390;28;20053;-62
2021/03/19 08:06:37;;;;;;;8.32;4.30;;;;;;;;;;5040976;28;20059;-62
2021/03/19 08:09:48;;;;;;;9.73;3.45;;;;;;;;;;5049456;28;20129;-62
2021/03/19 08:12:58;;;;;;;12.48;4.00;;;;;;;;;;5040049;28;20620;-62
2021/03/19 08:16:22;;;;;;;7.28;3.67;;;;;;;;;;5039796;28;20049;-62
2021/03/19 08:19:09;;;;;;;4.63;3.47;;;;;;;;;;5061572;28;20048;-62
2021/03/19 08:22:24;;;;;;;5.57;3.20;;;;;;;;;;5071501;28;20048;-63
2021/03/19 08:25:40;;;;;;;8.13;3.85;;;;;;;;;;5071125;28;20080;-62
2021/03/19 08:28:52;;;;;;;7.38;3.80;;;;;;;;;;5044989;28;20041;-63
2021/03/19 08:32:05;;;;;;;5.00;2.20;;;;;;;;;;5059550;28;20555;-63
2021/03/19 08:35:22;;;;;;;2.70;2.13;;;;;;;;;;5070919;28;20052;-63
2021/03/19 08:38:37;;;;;;;5.88;3.38;;;;;;;;;;5071177;28;20088;-63
2021/03/19 08:41:44;;;;;;;4.55;3.00;;;;;;;;;;5030923;28;20563;-63
2021/03/19 08:44:50;;;;;;;5.50;2.78;;;;;;;;;;5031055;28;20156;-63
2021/03/19 08:47:55;;;;;;;3.50;1.75;;;;;;;;;;5020074;28;20136;-63
2021/03/19 08:51:20;;;;;;;6.32;2.97;;;;;;;;;;5042970;28;20040;-64
2021/03/19 08:54:26;;;;;;;4.40;2.00;;;;;;;;;;5050392;28;20063;-65
2021/03/19 08:57:32;;;;;;;6.70;2.80;;;;;;;;;;5050983;28;20057;-65
2021/03/19 09:00:48;;;;;;;3.42;1.83;;;;;;;;;;5050830;28;20053;-63
2021/03/19 09:03:53;;;;;;;4.20;1.83;;;;;;;;;;5050521;28;20052;-63
2021/03/19 09:06:39;;;;;;;4.43;2.20;;;;;;;;;;5057266;28;20087;-63
2021/03/19 09:09:44;;;;;;;6.82;2.17;;;;;;;;;;5059539;28;20045;-63
2021/03/19 09:12:56;;;;;;;2.97;2.00;;;;;;;;;;5059412;28;20052;-64
2021/03/19 09:15:41;;;;;;;5.70;1.95;;;;;;;;;;5071338;28;20448;-64
2021/03/19 09:18:45;;;;;;;4.32;1.90;;;;;;;;;;5053550;28;20049;-64
2021/03/19 09:21:50;;;;;;;2.53;1.70;;;;;;;;;;5050812;28;20053;-63
2021/03/19 09:28:12;;;;;;;3.80;1.48;;;;;;;;;;4993451;28;20179;-68
2021/03/19 09:31:23;;;;;;;5.38;2.00;;;;;;;;;;4980942;28;20050;-69
2021/03/19 09:34:45;;;;;;;6.22;2.40;;;;;;;;;;5005339;28;20113;-69
2021/03/19 09:37:50;;;;;;;3.58;1.67;;;;;;;;;;5017733;23;20045;-68
2021/03/19 09:40:56;;;;;;;1.50;1.00;;;;;;;;;;5033167;28;20483;-68
2021/03/19 09:43:46;;;;;;;2.30;1.13;;;;;;;;;;5042236;28;20051;-67
2021/03/19 09:46:58;;;;;;;2.53;1.48;;;;;;;;;;5040275;28;20054;-68
2021/03/19 09:49:44;;;;;;;4.93;1.80;;;;;;;;;;5019027;28;20487;-68
2021/03/19 09:52:29;;;;;;;2.70;1.65;;;;;;;;;;5025395;28;20045;-66
2021/03/19 09:55:41;;;;;;;2.05;1.15;;;;;;;;;;5029054;28;20124;-63
2021/03/19 09:58:56;;;;;;;3.72;1.45;;;;;;;;;;5033584;28;20461;-63
2021/03/19 10:01:43;;;;;;;2.83;1.45;;;;;;;;;;5032579;28;20083;-64
2021/03/19 10:04:28;;;;;;;1.48;0.98;;;;;;;;;;5034615;28;20057;-63
2021/03/19 10:07:33;;;;;;;0.80;0.60;;;;;;;;;;5033639;28;20397;-63
2021/03/19 10:10:40;;;;;;;5.75;1.75;;;;;;;;;;5033963;28;20053;-63
2021/03/19 10:13:45;;;;;;;6.35;1.02;;;;;;;;;;5013902;28;20049;-64
2021/03/19 10:16:50;;;;;;;1.83;1.00;;;;;;;;;;5013865;28;20046;-64
2021/03/19 10:19:57;;;;;;;2.60;0.95;;;;;;;;;;5017666;28;20050;-64
2021/03/19 10:23:32;;;;;;;2.08;1.00;;;;;;;;;;5033562;28;20076;-63
2021/03/19 10:26:50;;;;;;;1.20;0.60;;;;;;;;;;5033549;28;20054;-64
2021/03/19 10:29:36;;;;;;;1.67;0.80;;;;;;;;;;5033436;28;20399;-63
2021/03/19 10:32:41;;;;;;;1.27;0.65;;;;;;;;;;5064887;28;20051;-64
2021/03/19 10:35:31;;;;;;;0.60;0.50;;;;;;;;;;5039563;28;20054;-64
2021/03/19 10:38:44;;;;;;;1.20;0.57;;;;;;;;;;5020070;28;20076;-65
2021/03/19 10:41:30;;;;;;;1.10;0.57;;;;;;;;;;5018668;28;20053;-65
2021/03/19 10:44:20;;;;;;;2.97;0.75;;;;;;;;;;5013582;28;20062;-66
2021/03/19 10:47:18;;;;;;;1.02;0.85;;;;;;;;;;5022362;28;20076;-64
2021/03/19 10:50:25;;;;;;;1.23;0.40;;;;;;;;;;5029027;28;20060;-65
2021/03/19 10:53:13;;;;;;;1.23;0.75;;;;;;;;;;5025217;28;20553;-64
2021/03/19 10:55:59;;;;;;;1.27;0.65;;;;;;;;;;5033253;28;20674;-63
2021/03/19 10:58:54;;;;;;;1.88;0.80;;;;;;;;;;5028050;28;20045;-63
2021/03/19 11:01:41;;;;;;;3.10;0.60;;;;;;;;;;5038990;28;20045;-63
2021/03/19 11:04:30;;;;;;;1.48;0.50;;;;;;;;;;5034721;28;20056;-63
2021/03/19 11:07:36;;;;;;;2.95;0.82;;;;;;;;;;5019208;28;20053;-63
2021/03/19 11:10:23;;;;;;;1.63;0.88;;;;;;;;;;5020026;28;20057;-63
2021/03/19 11:13:09;;;;;;;2.03;0.57;;;;;;;;;;5024471;28;20056;-63
2021/03/19 11:15:55;;;;;;;0.93;0.55;;;;;;;;;;5020507;28;20117;-63
2021/03/19 11:18:42;;;;;;;1.05;0.60;;;;;;;;;;5012779;28;20046;-64
2021/03/19 11:21:29;;;;;;;1.05;0.50;;;;;;;;;;5013668;28;20052;-64
2021/03/19 11:24:20;;;;;;;2.33;0.77;;;;;;;;;;5031743;28;20095;-64
2021/03/19 11:27:12;;;;;;;1.05;0.60;;;;;;;;;;5033474;28;20049;-64
2021/03/19 11:30:27;;;;;;;2.42;1.17;;;;;;;;;;5021755;28;20046;-64
2021/03/19 11:33:32;;;;;;;0.85;0.40;;;;;;;;;;5013858;28;20042;-64
2021/03/19 11:36:18;;;;;;;1.75;0.63;;;;;;;;;;5024623;28;20052;-64
2021/03/19 11:39:13;;;;;;;2.13;0.68;;;;;;;;;;5013603;28;20052;-64
2021/03/19 11:41:59;;;;;;;0.98;0.50;;;;;;;;;;5013248;28;20108;-63
2021/03/19 11:44:48;;;;;;;0.82;0.40;;;;;;;;;;5050025;28;20525;-63
2021/03/19 11:47:35;;;;;;;1.58;0.90;;;;;;;;;;5023864;28;20060;-64
2021/03/19 11:50:22;;;;;;;3.90;1.30;;;;;;;;;;5029682;28;20414;-63
2021/03/19 11:53:08;;;;;;;2.97;0.90;;;;;;;;;;5026777;28;20050;-64
2021/03/19 11:55:55;;;;;;;1.35;0.70;;;;;;;;;;5026496;28;20566;-63
2021/03/19 11:58:40;;;;;;;1.25;0.50;;;;;;;;;;5025509;28;20045;-64
2021/03/19 12:01:25;;;;;;;0.40;0.20;;;;;;;;;;5026602;28;20460;-63
2021/03/19 12:04:12;;;;;;;2.35;0.20;;;;;;;;;;5023374;28;20120;-63
2021/03/19 12:06:57;;;;;;;0.80;0.30;;;;;;;;;;5020579;28;20041;-64
2021/03/19 12:09:44;;;;;;;0.63;0.40;;;;;;;;;;5020792;28;20045;-64
2021/03/19 12:12:49;;;;;;;0.77;0.40;;;;;;;;;;5023406;28;20041;-63
2021/03/19 12:15:34;;;;;;;0.95;0.52;;;;;;;;;;5023739;28;20416;-63
2021/03/19 12:18:20;;;;;;;1.30;0.38;;;;;;;;;;5013360;28;20050;-63
2021/03/19 12:21:25;;;;;;;2.45;0.52;;;;;;;;;;5037793;28;20053;-64
2021/03/19 12:24:30;;;;;;;2.15;0.70;;;;;;;;;;5051296;28;20049;-64
2021/03/19 12:27:16;;;;;;;1.13;0.57;;;;;;;;;;5040979;28;20488;-64
2021/03/19 12:30:01;;;;;;;1.58;0.63;;;;;;;;;;5032135;28;20381;-64
2021/03/19 12:33:06;;;;;;;1.80;0.50;;;;;;;;;;5013200;28;20050;-64
2021/03/19 12:36:12;;;;;;;1.15;0.50;;;;;;;;;;5026409;28;20110;-64
2021/03/19 12:38:57;;;;;;;1.45;0.25;;;;;;;;;;5014650;28;20046;-64
2021/03/19 12:41:42;;;;;;;0.30;0.28;;;;;;;;;;5024741;28;20051;-64
2021/03/19 12:44:27;;;;;;;1.17;0.38;;;;;;;;;;5022163;28;20490;-64
2021/03/19 12:47:13;;;;;;;0.63;0.25;;;;;;;;;;5017239;28;20045;-64
2021/03/19 12:49:58;;;;;;;2.25;0.30;;;;;;;;;;5012228;28;20120;-64
2021/03/19 12:52:43;;;;;;;0.88;0.73;;;;;;;;;;5028103;28;20042;-63
2021/03/19 12:55:29;;;;;;;1.13;0.50;;;;;;;;;;5013634;28;20562;-63
2021/03/19 12:58:35;;;;;;;0.77;0.30;;;;;;;;;;5024000;28;20052;-63
2021/03/19 13:01:20;;;;;;;1.48;0.30;;;;;;;;;;5024733;28;20113;-63
2021/03/19 13:04:07;;;;;;;0.65;0.32;;;;;;;;;;5049451;28;20052;-63
2021/03/19 13:07:13;;;;;;;0.65;0.22;;;;;;;;;;5038422;28;20508;-63
2021/03/19 13:10:18;;;;;;;1.40;0.38;;;;;;;;;;5030802;28;20573;-64
2021/03/19 13:13:23;;;;;;;0.40;0.25;;;;;;;;;;5039890;28;20179;-63
2021/03/19 13:16:28;;;;;;;1.85;0.30;;;;;;;;;;5050483;28;20049;-64
2021/03/19 13:19:13;;;;;;;0.60;0.17;;;;;;;;;;5030139;28;20042;-64
2021/03/19 13:21:58;;;;;;;0.82;0.30;;;;;;;;;;5020989;28;20125;-65
2021/03/19 13:24:44;;;;;;;0.52;0.30;;;;;;;;;;5027214;28;20049;-64
2021/03/19 13:27:49;;;;;;;0.60;0.20;;;;;;;;;;5025191;28;20049;-65
2021/03/19 13:30:55;;;;;;;0.45;0.17;;;;;;;;;;5019444;28;20614;-66
2021/03/19 13:33:40;;;;;;;1.10;0.20;;;;;;;;;;5039215;28;20033;-65
2021/03/19 13:36:31;;;;;;;0.55;0.22;;;;;;;;;;5026288;28;20503;-66
2021/03/19 13:39:16;;;;;;;2.33;0.30;;;;;;;;;;5028284;28;20120;-65
2021/03/19 13:42:21;;;;;;;0.77;0.30;;;;;;;;;;5019518;28;20128;-66
2021/03/19 13:45:07;;;;;;;1.45;0.20;;;;;;;;;;5026796;28;20092;-65
2021/03/19 13:47:52;;;;;;;0.68;0.10;;;;;;;;;;5015447;28;20042;-65
2021/03/19 13:50:38;;;;;;;0.38;0.15;;;;;;;;;;5031038;28;20420;-64
2021/03/19 13:53:23;;;;;;;0.63;0.10;;;;;;;;;;5040425;28;20037;-65
2021/03/19 13:56:09;;;;;;;0.93;0.10;;;;;;;;;;5022522;28;20045;-65
2021/03/19 13:58:54;;;;;;;1.65;0.20;;;;;;;;;;5025406;28;20041;-65
2021/03/19 14:01:40;;;;;;;1.70;0.47;;;;;;;;;;5025999;28;20523;-65
2021/03/19 14:04:25;;;;;;;0.82;0.32;;;;;;;;;;5030545;28;20049;-65
2021/03/19 14:07:10;;;;;;;0.90;0.25;;;;;;;;;;5035114;28;20060;-64
2021/03/19 14:09:55;;;;;;;1.58;0.38;;;;;;;;;;5021248;28;20045;-66
2021/03/19 14:12:41;;;;;;;1.15;0.30;;;;;;;;;;5039635;28;20041;-66
2021/03/19 14:15:27;;;;;;;0.65;0.20;;;;;;;;;;5028838;28;20054;-64
2021/03/19 14:18:12;;;;;;;0.30;0.30;;;;;;;;;;5029707;28;20488;-65
2021/03/19 14:20:57;;;;;;;1.05;0.20;;;;;;;;;;5038109;28;20503;-66
2021/03/19 14:23:43;;;;;;;0.20;0.13;;;;;;;;;;5043634;28;20056;-65
2021/03/19 14:26:29;;;;;;;1.17;0.10;;;;;;;;;;5017770;28;20053;-66
2021/03/19 14:29:14;;;;;;;0.65;0.20;;;;;;;;;;5026581;28;20411;-65
2021/03/19 14:31:59;;;;;;;1.65;0.30;;;;;;;;;;5031843;28;20495;-66
2021/03/19 14:34:44;;;;;;;0.20;0.10;;;;;;;;;;5028907;28;20041;-66
2021/03/19 14:37:31;;;;;;;0.75;0.13;;;;;;;;;;5023470;28;20041;-65
2021/03/19 14:40:18;;;;;;;0.35;0.08;;;;;;;;;;5014914;28;20046;-65
2021/03/19 14:43:04;;;;;;;1.08;0.20;;;;;;;;;;5027595;28;20049;-65
2021/03/19 14:45:49;;;;;;;1.75;0.30;;;;;;;;;;5035752;28;20049;-65
2021/03/19 14:48:38;;;;;;;0.65;0.10;;;;;;;;;;5024803;28;20128;-65
2021/03/19 14:51:23;;;;;;;2.05;0.30;;;;;;;;;;5034068;28;20380;-65
2021/03/19 14:54:09;;;;;;;1.75;0.32;;;;;;;;;;5035198;28;20080;-64
2021/03/19 14:56:55;;;;;;;1.00;0.28;;;;;;;;;;5034012;28;20388;-64
2021/03/19 14:59:40;;;;;;;0.30;0.17;;;;;;;;;;5019233;28;20492;-65
2021/03/19 15:02:25;;;;;;;1.60;0.43;;;;;;;;;;5025262;28;20136;-65
2021/03/19 15:05:11;;;;;;;1.42;0.35;;;;;;;;;;5050567;28;20121;-65
2021/03/19 15:07:56;;;;;;;3.05;0.40;;;;;;;;;;5029417;28;20284;-65
2021/03/19 15:10:43;;;;;;;1.58;0.40;;;;;;;;;;5027742;28;20517;-65
2021/03/19 15:13:28;;;;;;;0.15;0.13;;;;;;;;;;5041794;28;20045;-65
2021/03/19 15:16:14;;;;;;;1.67;0.30;;;;;;;;;;5049567;28;20120;-65
2021/03/19 15:18:59;;;;;;;2.08;0.60;;;;;;;;;;5039349;28;20045;-64
2021/03/19 15:21:44;;;;;;;1.42;0.43;;;;;;;;;;5040575;28;20046;-65
2021/03/19 15:24:29;;;;;;;2.78;0.55;;;;;;;;;;5049919;28;20053;-65
2021/03/19 15:27:15;;;;;;;3.00;0.60;;;;;;;;;;5042199;28;20046;-65
2021/03/19 15:30:00;;;;;;;3.20;0.70;;;;;;;;;;5018139;28;20053;-65
2021/03/19 15:32:45;;;;;;;1.67;0.40;;;;;;;;;;5018877;28;20049;-65
2021/03/19 15:35:31;;;;;;;2.25;0.85;;;;;;;;;;5030058;28;20041;-65
2021/03/19 15:38:17;;;;;;;2.67;0.77;;;;;;;;;;5024323;28;20037;-65
2021/03/19 15:41:03;;;;;;;2.88;0.75;;;;;;;;;;5038847;28;20041;-65
2021/03/19 15:43:48;;;;;;;3.47;0.77;;;;;;;;;;5039247;28;20045;-65
2021/03/19 15:46:33;;;;;;;3.72;0.90;;;;;;;;;;5047415;28;20658;-65
2021/03/19 15:49:19;;;;;;;2.80;0.60;;;;;;;;;;5039284;28;20122;-65
2021/03/19 15:52:04;;;;;;;4.72;0.60;;;;;;;;;;5045965;28;20049;-65
2021/03/19 15:54:50;;;;;;;4.45;0.65;;;;;;;;;;5023075;28;20076;-66
2021/03/19 15:57:36;;;;;;;2.22;0.77;;;;;;;;;;5052400;28;20069;-65
2021/03/19 16:00:22;;;;;;;2.92;0.80;;;;;;;;;;5032064;28;20045;-66
2021/03/19 16:03:07;;;;;;;2.70;1.25;;;;;;;;;;5037842;28;20045;-66
2021/03/19 16:05:53;;;;;;;3.38;0.95;;;;;;;;;;5041348;28;20047;-65
2021/03/19 16:08:38;;;;;;;3.25;1.42;;;;;;;;;;5057991;22;20103;-63
2021/03/19 16:11:24;;;;;;;5.68;1.20;;;;;;;;;;5072308;28;20040;-64
2021/03/19 16:14:09;;;;;;;4.95;1.23;;;;;;;;;;5077679;28;20052;-64
2021/03/19 16:16:54;;;;;;;6.20;1.30;;;;;;;;;;5072394;28;20127;-64
2021/03/19 16:19:40;;;;;;;3.00;1.42;;;;;;;;;;5052999;28;20052;-64
2021/03/19 16:22:25;;;;;;;3.08;1.00;;;;;;;;;;5045815;28;20049;-64
2021/03/19 16:25:11;;;;;;;4.28;1.10;;;;;;;;;;5052895;28;20052;-64
2021/03/19 16:27:56;;;;;;;5.75;1.75;;;;;;;;;;5044474;28;20415;-64
2021/03/19 16:30:42;;;;;;;5.85;1.30;;;;;;;;;;5057200;28;20499;-64
2021/03/19 16:33:28;;;;;;;5.78;1.35;;;;;;;;;;5059339;28;20045;-64
2021/03/19 16:36:13;;;;;;;5.47;1.58;;;;;;;;;;5063970;28;20052;-64
2021/03/19 16:38:59;;;;;;;3.22;1.00;;;;;;;;;;5057240;28;20044;-64
2021/03/19 16:41:44;;;;;;;3.85;1.00;;;;;;;;;;5058684;28;20507;-64
2021/03/19 16:44:29;;;;;;;3.05;0.98;;;;;;;;;;5068002;28;20052;-64
2021/03/19 16:47:15;;;;;;;2.20;1.00;;;;;;;;;;5053345;28;20446;-64
2021/03/19 16:50:00;;;;;;;6.00;1.85;;;;;;;;;;5066605;28;20045;-64
2021/03/19 16:52:47;;;;;;;6.80;2.17;;;;;;;;;;5037543;28;20395;-64
2021/03/19 16:55:33;;;;;;;14.13;3.33;;;;;;;;;;5052272;28;20052;-64
2021/03/19 16:58:20;;;;;;;7.65;1.67;;;;;;;;;;5052122;28;20037;-64
2021/03/19 17:01:05;;;;;;;10.65;1.75;;;;;;;;;;5045345;28;20046;-64
2021/03/19 17:03:51;;;;;;;5.47;1.65;;;;;;;;;;5056970;28;20128;-64
2021/03/19 17:06:36;;;;;;;3.63;1.67;;;;;;;;;;5048817;28;20568;-64
2021/03/19 17:09:21;;;;;;;4.85;1.75;;;;;;;;;;5064769;28;20490;-64